Time;durP1;ratioP1;P1;durP2;ratioP2;P2;SDS_P1;SDS_P2;PMS_P1;PMS_P2;Temp;Humidity;BMP_temperature;BMP_pressure;BME280_temperature;BME280_humidity;BME280_pressure;Samples;Min_cycle;Max_cycle;Signal;HPM_P1;HPM_P2
2021/07/06 00:01:58;;;;;;;4.20;1.90;;;;;;;17.55;74.16;95970.28;5014590;28;20046;-74
2021/07/06 00:04:25;;;;;;;3.42;2.00;;;;;;;17.50;74.26;95972.56;5014221;28;20041;-73
2021/07/06 00:06:51;;;;;;;4.57;1.98;;;;;;;17.46;74.43;95970.53;5014250;28;20050;-74
2021/07/06 00:09:19;;;;;;;5.50;2.53;;;;;;;17.44;75.12;95967.38;5013801;28;20042;-74
2021/07/06 00:11:45;;;;;;;5.63;2.80;;;;;;;17.44;75.34;95972.88;5014378;28;20064;-74
2021/07/06 00:14:13;;;;;;;4.30;2.13;;;;;;;17.47;75.09;95971.34;5013670;28;20409;-74
2021/07/06 00:16:40;;;;;;;6.47;2.47;;;;;;;17.45;75.08;95963.47;5014177;28;20048;-74
2021/07/06 00:19:06;;;;;;;4.13;1.80;;;;;;;17.45;75.33;95968.97;5013681;28;20046;-74
2021/07/06 00:21:33;;;;;;;6.88;2.15;;;;;;;17.47;74.37;95965.84;5014052;28;20056;-74
2021/07/06 00:23:59;;;;;;;6.55;2.65;;;;;;;17.46;74.01;95967.00;5013941;28;20497;-74
2021/07/06 00:26:27;;;;;;;5.00;2.33;;;;;;;17.39;74.55;95970.47;5013574;28;20042;-75
2021/07/06 00:28:53;;;;;;;4.80;2.60;;;;;;;17.36;74.91;95965.69;5013542;28;20069;-74
2021/07/06 00:31:20;;;;;;;4.85;2.53;;;;;;;17.37;74.89;95967.25;5013134;28;20069;-74
2021/07/06 00:33:46;;;;;;;4.93;2.08;;;;;;;17.36;74.90;95965.69;5013887;28;20046;-74
2021/07/06 00:36:13;;;;;;;3.63;2.55;;;;;;;17.30;75.36;95967.16;5012576;28;20129;-75
2021/07/06 00:38:39;;;;;;;4.50;2.35;;;;;;;17.30;75.00;95967.16;5013636;28;20049;-74
2021/07/06 00:41:06;;;;;;;4.72;2.53;;;;;;;17.28;75.19;95968.69;5013296;28;20061;-74
2021/07/06 00:43:36;;;;;;;5.97;2.50;;;;;;;17.25;75.35;95961.97;5013867;28;20523;-74
2021/07/06 00:46:05;;;;;;;3.80;2.38;;;;;;;17.22;75.25;95968.22;5013240;28;20076;-74
2021/07/06 00:48:32;;;;;;;4.78;2.38;;;;;;;17.17;75.49;95957.53;5013389;28;20053;-74
2021/07/06 00:50:58;;;;;;;3.92;2.05;;;;;;;17.15;75.90;95959.88;5013434;28;20046;-74
2021/07/06 00:53:25;;;;;;;4.30;2.38;;;;;;;17.12;76.06;95961.41;5013151;28;20049;-74
2021/07/06 00:55:55;;;;;;;5.07;2.45;;;;;;;17.09;76.29;95964.09;5013307;28;20049;-74
2021/07/06 00:58:22;;;;;;;15.90;6.72;;;;;;;17.10;76.31;95968.44;5008307;28;20050;-74
2021/07/06 01:00:50;;;;;;;5.95;2.35;;;;;;;17.10;75.65;95966.47;5013075;28;20061;-74
2021/07/06 01:03:17;;;;;;;9.93;4.50;;;;;;;17.11;75.26;95959.81;5012345;28;20062;-74
2021/07/06 01:05:43;;;;;;;5.30;2.17;;;;;;;17.04;75.59;95953.41;5008370;28;20416;-74
2021/07/06 01:08:10;;;;;;;4.72;2.60;;;;;;;17.03;75.75;95951.81;5012724;28;20405;-73
2021/07/06 01:10:37;;;;;;;4.05;2.42;;;;;;;17.00;76.03;95952.56;5013015;28;20042;-75
2021/07/06 01:13:05;;;;;;;6.15;2.42;;;;;;;16.96;75.74;95952.50;5012933;28;20519;-74
2021/07/06 01:15:33;;;;;;;4.88;2.42;;;;;;;16.94;75.81;95950.13;5012986;28;20057;-74
2021/07/06 01:18:04;;;;;;;4.57;2.50;;;;;;;16.94;76.13;95950.13;5012940;28;20412;-74
2021/07/06 01:20:32;;;;;;;3.55;2.15;;;;;;;16.95;76.38;95950.91;5012701;28;20038;-74
2021/07/06 01:23:00;;;;;;;4.68;2.70;;;;;;;16.92;76.18;95946.94;5013002;28;20053;-74
2021/07/06 01:25:27;;;;;;;3.42;2.17;;;;;;;16.90;76.02;95940.22;5012505;28;20061;-74
2021/07/06 01:27:53;;;;;;;4.63;2.25;;;;;;;16.88;76.08;95946.09;5012486;28;20042;-74
2021/07/06 01:30:20;;;;;;;8.13;2.50;;;;;;;16.89;76.07;95941.38;5012197;28;20122;-74
2021/07/06 01:32:49;;;;;;;4.07;2.05;;;;;;;16.89;76.06;95931.16;5012543;28;20061;-74
2021/07/06 01:35:17;;;;;;;5.72;2.60;;;;;;;16.83;75.46;95931.88;5011795;28;20050;-74
2021/07/06 01:37:45;;;;;;;5.35;2.22;;;;;;;16.85;75.23;95924.81;5012620;28;20060;-74
2021/07/06 01:40:14;;;;;;;4.63;2.35;;;;;;;16.89;75.41;95919.38;5012060;28;20058;-74
2021/07/06 01:42:42;;;;;;;4.07;2.05;;;;;;;16.91;75.33;95915.13;5012673;28;20041;-74
2021/07/06 01:45:10;;;;;;;6.53;2.42;;;;;;;16.92;74.91;95913.94;5012188;28;20042;-74
2021/07/06 01:47:38;;;;;;;5.15;2.33;;;;;;;16.89;75.26;95911.91;5011521;28;20042;-74
2021/07/06 01:50:06;;;;;;;5.53;2.53;;;;;;;16.88;75.74;95904.84;5011923;28;20194;-74
2021/07/06 01:52:32;;;;;;;3.30;2.20;;;;;;;16.85;75.78;95902.81;5012507;28;20049;-74
2021/07/06 01:54:59;;;;;;;5.13;2.30;;;;;;;16.86;75.80;95906.34;5012200;28;20053;-74
2021/07/06 01:57:27;;;;;;;3.72;2.35;;;;;;;16.86;75.38;95904.44;5011723;28;20048;-74
2021/07/06 01:59:53;;;;;;;4.18;2.33;;;;;;;16.83;75.52;95899.66;5012053;28;20049;-74
2021/07/06 02:02:20;;;;;;;6.15;2.70;;;;;;;16.83;75.82;95893.38;5011662;28;20057;-74
2021/07/06 02:04:49;;;;;;;5.18;2.08;;;;;;;16.81;75.82;95891.00;5012082;28;20050;-73
2021/07/06 02:07:16;;;;;;;5.88;2.72;;;;;;;16.81;75.97;95902.00;5011510;28;20053;-73
2021/07/06 02:09:43;;;;;;;6.72;2.22;;;;;;;16.82;76.04;95891.78;5012055;28;20046;-74
2021/07/06 02:12:09;;;;;;;7.47;3.15;;;;;;;16.81;75.94;95888.25;5011825;28;20042;-74
2021/07/06 02:14:37;;;;;;;7.63;2.42;;;;;;;16.79;76.14;95892.50;5011978;28;20053;-74
2021/07/06 02:17:04;;;;;;;5.38;2.55;;;;;;;16.78;76.39;95880.72;5011661;28;20133;-74
2021/07/06 02:19:31;;;;;;;3.90;1.98;;;;;;;16.80;76.46;95889.38;5012008;28;20537;-74
2021/07/06 02:21:57;;;;;;;4.93;2.08;;;;;;;16.81;75.83;95891.00;5012157;28;20041;-74
2021/07/06 02:24:24;;;;;;;3.58;1.88;;;;;;;16.83;75.34;95894.16;5011320;28;20046;-74
2021/07/06 02:26:53;;;;;;;7.18;2.47;;;;;;;16.81;75.29;95891.00;5011924;28;20489;-74
2021/07/06 02:29:19;;;;;;;7.30;2.03;;;;;;;16.81;75.22;95885.50;5011240;28;20420;-75
2021/07/06 02:31:47;;;;;;;7.00;2.28;;;;;;;16.80;75.49;95881.13;5011990;28;20058;-74
2021/07/06 02:34:14;;;;;;;4.70;2.00;;;;;;;16.80;75.63;95883.09;5011071;28;20161;-74
2021/07/06 02:36:40;;;;;;;3.70;2.08;;;;;;;16.77;76.06;95886.59;5011703;28;20054;-73
2021/07/06 02:39:07;;;;;;;5.03;2.58;;;;;;;16.78;75.99;95877.97;5010765;28;20436;-74
2021/07/06 02:41:33;;;;;;;5.43;2.65;;;;;;;16.79;75.25;95887.81;5011726;28;20058;-74
2021/07/06 02:44:00;;;;;;;6.88;2.60;;;;;;;16.80;74.98;95877.59;5011566;28;20054;-74
2021/07/06 02:46:26;;;;;;;3.50;1.90;;;;;;;16.79;75.44;95881.50;5011205;28;20485;-74
2021/07/06 02:48:54;;;;;;;4.13;1.92;;;;;;;16.79;75.04;95876.81;5011446;28;20224;-74
2021/07/06 02:51:20;;;;;;;7.55;2.10;;;;;;;16.81;75.22;95869.00;5010947;28;20050;-73
2021/07/06 02:53:47;;;;;;;6.85;2.53;;;;;;;16.81;75.03;95862.69;5011392;28;20048;-74
2021/07/06 02:56:14;;;;;;;6.22;2.70;;;;;;;16.79;75.37;95867.75;5010936;28;20046;-73
2021/07/06 02:58:40;;;;;;;5.32;2.17;;;;;;;16.74;75.67;95868.88;5010997;28;20065;-74
2021/07/06 03:01:07;;;;;;;9.52;2.58;;;;;;;16.72;75.36;95871.22;5010846;28;20049;-74
2021/07/06 03:03:33;;;;;;;6.72;2.58;;;;;;;16.73;75.03;95864.53;5011301;28;20053;-74
2021/07/06 03:06:01;;;;;;;7.60;2.28;;;;;;;16.70;74.97;95860.56;5011109;28;20066;-74
2021/07/06 03:08:30;;;;;;;9.23;2.20;;;;;;;16.68;74.72;95864.81;5010865;28;20041;-74
2021/07/06 03:10:56;;;;;;;7.65;2.30;;;;;;;16.62;74.96;95860.81;5011286;28;20116;-74
2021/07/06 03:13:23;;;;;;;4.00;2.25;;;;;;;16.59;75.23;95867.03;5011031;28;20527;-74
2021/07/06 03:15:50;;;;;;;5.38;2.30;;;;;;;16.56;75.75;95854.03;5011130;28;20417;-75
2021/07/06 03:18:16;;;;;;;4.97;2.35;;;;;;;16.53;76.07;95854.75;5010721;28;20046;-74
2021/07/06 03:20:43;;;;;;;5.65;2.50;;;;;;;16.52;76.60;95853.97;5010982;28;20046;-74
2021/07/06 03:23:11;;;;;;;5.75;2.75;;;;;;;16.51;76.84;95849.66;5010901;28;20046;-74
2021/07/06 03:25:37;;;;;;;9.13;2.80;;;;;;;16.50;76.97;95852.78;5011106;28;20409;-74
2021/07/06 03:28:05;;;;;;;8.23;2.80;;;;;;;16.48;76.92;95857.81;5010742;28;20046;-74
2021/07/06 03:30:36;;;;;;;9.63;3.08;;;;;;;16.48;77.16;95855.88;5011104;28;20050;-75
2021/07/06 03:33:05;;;;;;;5.68;2.50;;;;;;;16.51;77.02;95851.59;5010693;28;20243;-72
2021/07/06 03:35:32;;;;;;;10.07;2.63;;;;;;;16.55;76.28;95852.44;5011047;28;20038;-74
2021/07/06 03:37:59;;;;;;;6.55;2.92;;;;;;;16.54;76.25;95854.38;5010807;28;20054;-74
2021/07/06 03:40:28;;;;;;;6.00;2.17;;;;;;;16.57;76.44;95858.38;5010489;28;20048;-74
2021/07/06 03:42:54;;;;;;;7.93;3.03;;;;;;;16.58;76.12;95854.44;5011142;28;20069;-75
2021/07/06 03:45:23;;;;;;;5.35;2.45;;;;;;;16.59;76.40;95850.53;5010573;28;20057;-73
2021/07/06 03:47:50;;;;;;;7.25;2.40;;;;;;;16.62;76.69;95849.81;5011087;28;20050;-74
2021/07/06 03:50:19;;;;;;;9.27;3.13;;;;;;;16.62;76.45;95845.09;5010391;28;20046;-74
2021/07/06 03:52:46;;;;;;;6.60;2.45;;;;;;;16.63;76.75;95832.16;5010773;28;20046;-74
2021/07/06 03:55:13;;;;;;;8.70;3.15;;;;;;;16.65;77.14;95832.56;5010268;28;20524;-74
2021/07/06 03:57:41;;;;;;;6.35;2.83;;;;;;;16.68;76.71;95842.84;5011000;28;20042;-74
2021/07/06 04:00:10;;;;;;;6.25;2.85;;;;;;;16.69;76.95;95844.41;5010116;28;20528;-73
2021/07/06 04:02:37;;;;;;;6.47;2.90;;;;;;;16.73;77.49;95845.28;5010561;28;20038;-74
2021/07/06 04:05:04;;;;;;;9.20;3.35;;;;;;;16.74;77.43;95852.38;5010225;28;20054;-73
2021/07/06 04:07:31;;;;;;;4.93;2.65;;;;;;;16.78;77.49;95844.97;5010751;28;20517;-75
2021/07/06 04:09:57;;;;;;;5.75;2.78;;;;;;;16.81;77.15;95836.00;5011476;28;20095;-73
2021/07/06 04:12:24;;;;;;;6.90;2.80;;;;;;;16.83;76.75;95833.66;5013993;28;20536;-74
2021/07/06 04:14:52;;;;;;;7.80;2.85;;;;;;;16.84;77.09;95835.25;5014107;28;20042;-74
2021/07/06 04:17:20;;;;;;;5.15;2.58;;;;;;;16.86;77.33;95827.44;5013787;28;20554;-74
2021/07/06 04:19:46;;;;;;;7.03;2.78;;;;;;;16.88;77.73;95830.59;5014081;28;20053;-74
2021/07/06 04:22:13;;;;;;;6.15;2.67;;;;;;;16.92;77.22;95820.44;5013528;28;20538;-73
2021/07/06 04:24:39;;;;;;;7.22;3.35;;;;;;;16.96;77.24;95817.72;5013976;28;20057;-74
2021/07/06 04:27:06;;;;;;;3.88;2.30;;;;;;;16.97;77.37;95819.34;5013573;28;20053;-75
2021/07/06 04:29:33;;;;;;;4.72;2.45;;;;;;;17.00;77.93;95818.56;5013623;28;20046;-73
2021/07/06 04:32:01;;;;;;;5.97;2.75;;;;;;;17.05;78.04;95817.47;5013797;28;20050;-74
2021/07/06 04:34:27;;;;;;;5.90;2.80;;;;;;;17.07;78.03;95821.44;5003987;28;20045;-73
2021/07/06 04:36:54;;;;;;;7.43;2.95;;;;;;;17.12;78.06;95823.03;5002001;28;20505;-73
2021/07/06 04:39:20;;;;;;;5.13;2.35;;;;;;;17.16;77.89;95821.13;4993461;28;20047;-73
2021/07/06 04:41:47;;;;;;;5.50;2.80;;;;;;;17.19;77.68;95829.44;4994123;28;20059;-74
2021/07/06 04:44:14;;;;;;;7.78;2.70;;;;;;;17.24;77.95;95825.56;4993325;28;20105;-73
2021/07/06 04:46:42;;;;;;;6.30;2.25;;;;;;;17.29;78.01;95828.00;4993996;28;20053;-73
2021/07/06 04:49:10;;;;;;;5.68;2.80;;;;;;;17.36;77.88;95828.06;4993574;28;20054;-73
2021/07/06 04:51:37;;;;;;;6.05;2.47;;;;;;;17.35;77.07;95832.00;4993934;28;20042;-74
2021/07/06 04:54:04;;;;;;;7.43;3.05;;;;;;;17.39;77.22;95843.84;4993423;28;20042;-73
2021/07/06 04:56:30;;;;;;;7.35;2.75;;;;;;;17.43;77.31;95844.66;4993619;28;20046;-73
2021/07/06 04:58:56;;;;;;;8.05;3.60;;;;;;;17.46;77.08;95848.66;4993792;28;20046;-73
2021/07/06 05:01:23;;;;;;;10.07;6.10;;;;;;;17.52;77.02;95854.63;5004423;28;20413;-74
2021/07/06 05:03:51;;;;;;;9.65;3.85;;;;;;;17.56;77.04;95858.19;5011512;28;20424;-75
2021/07/06 05:06:19;;;;;;;7.97;3.10;;;;;;;17.61;76.95;95853.16;4994443;28;20077;-74
2021/07/06 05:08:45;;;;;;;10.30;5.68;;;;;;;17.62;77.04;95853.94;4993538;28;20050;-73
2021/07/06 05:11:12;;;;;;;6.85;2.90;;;;;;;17.66;76.93;95863.03;4992930;28;20505;-74
2021/07/06 05:13:39;;;;;;;5.07;3.10;;;;;;;17.74;77.36;95859.22;4993520;28;20497;-74
2021/07/06 05:16:06;;;;;;;10.63;2.78;;;;;;;17.80;77.67;95854.16;4992850;28;20057;-74
2021/07/06 05:18:32;;;;;;;5.22;3.05;;;;;;;17.83;77.52;95854.22;4993234;28;20046;-74
2021/07/06 05:20:59;;;;;;;7.47;3.53;;;;;;;17.86;77.75;95853.47;4991548;28;20050;-74
2021/07/06 05:23:27;;;;;;;5.78;2.72;;;;;;;17.89;77.88;95852.69;5009723;28;20053;-74
2021/07/06 05:25:53;;;;;;;7.22;3.90;;;;;;;17.90;77.64;95856.25;5009780;28;20050;-74
2021/07/06 05:28:20;;;;;;;5.35;2.58;;;;;;;17.90;76.93;95857.03;5011444;28;20045;-74
2021/07/06 05:30:46;;;;;;;4.00;2.45;;;;;;;17.96;76.23;95847.28;5012944;28;20060;-74
2021/07/06 05:33:13;;;;;;;4.22;2.42;;;;;;;18.03;76.25;95843.00;5012272;28;20042;-73
2021/07/06 05:35:39;;;;;;;4.88;2.65;;;;;;;18.09;76.87;95835.97;5012322;28;20046;-74
2021/07/06 05:38:06;;;;;;;6.15;2.33;;;;;;;18.15;77.29;95839.97;5011932;28;20060;-77
2021/07/06 05:40:38;;;;;;;4.22;2.50;;;;;;;18.18;77.22;95840.00;5012238;28;20048;-76
2021/07/06 05:43:06;;;;;;;3.72;2.30;;;;;;;18.21;77.11;95843.97;5012133;28;20643;-76
2021/07/06 05:45:33;;;;;;;4.40;2.03;;;;;;;18.28;77.02;95833.03;5012452;28;20092;-77
2021/07/06 05:48:00;;;;;;;7.30;3.03;;;;;;;18.30;76.05;95835.38;5012294;28;20394;-78
2021/07/06 05:50:27;;;;;;;4.82;2.70;;;;;;;18.37;76.31;95833.47;5012308;28;20048;-76
2021/07/06 05:52:53;;;;;;;5.38;2.65;;;;;;;18.43;76.38;95834.72;5012461;28;20050;-75
2021/07/06 05:55:20;;;;;;;5.50;2.17;;;;;;;18.50;76.37;95828.47;5011768;28;20046;-76
2021/07/06 05:57:48;;;;;;;6.38;2.70;;;;;;;18.60;76.67;95826.97;5012004;28;20042;-76
2021/07/06 06:00:16;;;;;;;4.57;2.65;;;;;;;18.67;76.64;95822.28;5011447;28;20046;-76
2021/07/06 06:02:42;;;;;;;4.03;2.58;;;;;;;18.70;75.11;95818.81;5012204;28;20104;-76
2021/07/06 06:05:09;;;;;;;7.55;2.33;;;;;;;18.71;74.26;95811.31;5011625;28;20042;-76
2021/07/06 06:07:40;;;;;;;8.15;2.53;;;;;;;18.79;74.80;95807.41;5011845;28;20041;-77
2021/07/06 06:10:08;;;;;;;4.85;2.60;;;;;;;18.82;74.83;95809.44;5011822;28;20042;-76
2021/07/06 06:12:34;;;;;;;4.15;2.28;;;;;;;18.89;74.84;95806.69;5011930;28;20052;-76
2021/07/06 06:15:04;;;;;;;6.13;2.38;;;;;;;18.99;75.15;95810.69;5011970;28;20501;-76
2021/07/06 06:17:30;;;;;;;7.63;2.85;;;;;;;19.03;74.74;95806.78;5011311;28;20038;-77
2021/07/06 06:19:57;;;;;;;3.92;2.30;;;;;;;19.11;74.25;95801.31;5011987;28;20057;-77
2021/07/06 06:22:23;;;;;;;7.75;2.53;;;;;;;19.19;73.88;95800.16;5011677;28;20045;-76
2021/07/06 06:24:50;;;;;;;4.22;2.28;;;;;;;19.27;74.15;95793.50;5012020;28;20412;-75
2021/07/06 06:27:16;;;;;;;5.07;2.15;;;;;;;19.36;73.51;95791.16;5011429;28;20044;-75
2021/07/06 06:29:43;;;;;;;3.35;2.00;;;;;;;19.47;73.68;95789.25;5011615;28;20045;-75
2021/07/06 06:32:11;;;;;;;4.03;2.03;;;;;;;19.60;74.09;95781.44;5010578;28;20056;-76
2021/07/06 06:34:38;;;;;;;6.25;3.13;;;;;;;19.74;73.78;95775.94;5009702;28;20038;-75
2021/07/06 06:37:04;;;;;;;4.03;1.60;;;;;;;19.84;71.98;95782.69;5010849;28;20046;-74
2021/07/06 06:39:31;;;;;;;3.10;1.77;;;;;;;19.96;71.63;95779.53;5011310;28;20531;-75
2021/07/06 06:41:57;;;;;;;2.72;1.75;;;;;;;20.04;70.61;95778.34;5011717;28;20054;-75
2021/07/06 06:44:24;;;;;;;2.97;1.50;;;;;;;20.14;69.60;95782.31;5011193;28;20430;-75
2021/07/06 06:46:50;;;;;;;2.53;1.63;;;;;;;20.26;69.82;95789.44;5011530;28;20501;-75
2021/07/06 06:49:18;;;;;;;4.80;1.88;;;;;;;20.35;70.11;95792.56;5010901;28;20080;-75
2021/07/06 06:51:45;;;;;;;7.15;1.98;;;;;;;20.42;70.03;95787.06;5011229;28;20042;-75
2021/07/06 06:54:11;;;;;;;3.63;1.90;;;;;;;20.57;70.00;95782.34;5011181;28;20042;-75
2021/07/06 06:56:40;;;;;;;6.22;1.88;;;;;;;20.68;69.65;95772.06;5011486;28;20053;-75
2021/07/06 06:59:09;;;;;;;5.72;1.90;;;;;;;20.76;70.39;95765.31;5011090;28;20078;-75
2021/07/06 07:01:37;;;;;;;2.40;1.50;;;;;;;20.83;68.83;95768.06;5011485;28;20065;-75
2021/07/06 07:04:04;;;;;;;4.10;1.98;;;;;;;20.92;69.24;95773.19;5010833;28;20129;-75
2021/07/06 07:06:32;;;;;;;3.33;1.70;;;;;;;21.00;69.19;95774.75;5011389;28;20053;-76
2021/07/06 07:08:59;;;;;;;3.20;1.60;;;;;;;21.15;68.95;95774.72;5011399;28;20042;-76
2021/07/06 07:11:25;;;;;;;3.60;1.55;;;;;;;21.22;67.61;95758.06;5008143;28;20042;-73
2021/07/06 07:13:52;;;;;;;2.40;1.50;;;;;;;21.35;66.20;95750.91;5010990;28;20051;-74
2021/07/06 07:16:18;;;;;;;3.03;1.65;;;;;;;21.46;66.62;95757.22;5009746;28;20046;-75
2021/07/06 07:18:45;;;;;;;2.72;1.83;;;;;;;21.53;65.33;95757.16;5010789;28;20117;-74
2021/07/06 07:21:12;;;;;;;4.18;2.00;;;;;;;21.67;65.81;95747.22;5010992;28;20046;-74
2021/07/06 07:23:40;;;;;;;2.58;1.67;;;;;;;21.77;64.23;95749.09;5011239;28;20042;-73
2021/07/06 07:26:07;;;;;;;6.38;1.92;;;;;;;21.88;64.62;95745.09;5010626;28;20053;-74
2021/07/06 07:28:33;;;;;;;3.55;1.83;;;;;;;21.99;64.68;95738.69;5010596;28;20060;-74
2021/07/06 07:31:00;;;;;;;2.67;1.90;;;;;;;22.06;65.49;95744.94;5010838;28;20045;-75
2021/07/06 07:33:26;;;;;;;6.28;1.80;;;;;;;22.13;64.88;95742.16;5010326;28;20046;-76
2021/07/06 07:35:53;;;;;;;2.63;1.65;;;;;;;22.28;66.32;95751.16;5010678;28;20050;-76
2021/07/06 07:38:19;;;;;;;2.78;1.70;;;;;;;22.37;64.50;95747.91;5009979;28;20074;-76
2021/07/06 07:40:47;;;;;;;2.72;1.50;;;;;;;22.49;64.27;95744.63;5010794;28;20069;-77
2021/07/06 07:43:13;;;;;;;2.63;1.88;;;;;;;22.59;64.07;95749.28;5010204;28;20049;-75
2021/07/06 07:45:40;;;;;;;2.60;1.45;;;;;;;22.72;63.30;95740.47;5014171;28;20509;-76
2021/07/06 07:48:06;;;;;;;3.90;2.00;;;;;;;22.82;63.59;95750.66;5013850;28;20049;-76
2021/07/06 07:50:33;;;;;;;3.88;1.73;;;;;;;22.86;62.37;95745.84;5014300;28;20085;-74
2021/07/06 07:53:00;;;;;;;3.38;1.83;;;;;;;22.97;62.66;95743.81;5014104;28;20045;-75
2021/07/06 07:55:26;;;;;;;4.85;1.95;;;;;;;23.06;61.80;95746.06;5014085;28;20038;-74
2021/07/06 07:57:55;;;;;;;2.85;1.33;;;;;;;23.16;61.67;95742.38;5014059;28;20049;-76
2021/07/06 08:00:22;;;;;;;6.70;1.60;;;;;;;23.28;61.73;95732.72;5013511;28;20049;-75
2021/07/06 08:02:48;;;;;;;6.78;1.73;;;;;;;23.46;62.83;95733.28;5014221;28;20057;-76
2021/07/06 08:05:16;;;;;;;5.88;1.95;;;;;;;23.57;60.62;95744.25;5013317;28;20397;-75
2021/07/06 08:07:42;;;;;;;2.50;1.33;;;;;;;23.75;59.88;95747.59;5014213;28;20042;-74
2021/07/06 08:10:09;;;;;;;3.70;1.50;;;;;;;23.87;58.83;95737.91;5013340;28;20068;-74
2021/07/06 08:12:36;;;;;;;1.77;1.30;;;;;;;24.03;59.19;95740.06;5013780;28;20045;-69
2021/07/06 08:15:05;;;;;;;3.70;1.40;;;;;;;24.27;59.16;95729.72;5013484;28;20057;-67
2021/07/06 08:17:32;;;;;;;1.83;1.30;;;;;;;24.92;56.61;95735.78;5013603;28;20045;-71
2021/07/06 08:20:00;;;;;;;2.25;1.20;;;;;;;26.42;53.07;95727.81;5013374;28;20416;-68
2021/07/06 08:22:27;;;;;;;5.65;1.40;;;;;;;27.98;48.22;95721.09;5013491;28;20038;-70
2021/07/06 08:24:54;;;;;;;2.17;1.27;;;;;;;29.12;46.69;95723.72;5013259;28;20049;-73
2021/07/06 08:27:21;;;;;;;1.13;0.82;;;;;;;29.98;43.00;95728.97;5013456;28;20061;-75
2021/07/06 08:29:47;;;;;;;3.60;1.30;;;;;;;30.76;41.14;95724.28;5013031;28;20046;-75
2021/07/06 08:32:15;;;;;;;2.33;1.10;;;;;;;31.33;40.16;95731.03;5013274;28;20038;-73
2021/07/06 08:34:42;;;;;;;2.45;1.30;;;;;;;31.77;39.66;95722.19;5013208;28;20485;-75
2021/07/06 08:37:08;;;;;;;1.70;1.20;;;;;;;32.39;38.78;95718.88;5013399;28;20049;-75
2021/07/06 08:39:35;;;;;;;1.63;1.10;;;;;;;32.94;38.24;95718.59;5012751;28;20050;-75
2021/07/06 08:42:02;;;;;;;2.25;1.27;;;;;;;33.34;38.80;95705.22;5013076;28;20581;-75
2021/07/06 08:44:29;;;;;;;6.88;1.50;;;;;;;33.46;34.97;95702.19;5013238;28;20069;-75
2021/07/06 08:46:59;;;;;;;2.65;1.20;;;;;;;33.63;35.24;95699.66;5013353;28;20061;-74
2021/07/06 08:49:27;;;;;;;1.35;1.15;;;;;;;33.70;35.49;95706.94;5012562;28;20046;-74
2021/07/06 08:51:54;;;;;;;2.72;1.30;;;;;;;33.61;35.89;95702.16;5013320;28;20420;-75
2021/07/06 08:54:21;;;;;;;1.88;1.25;;;;;;;33.56;36.34;95694.38;5012248;28;20049;-75
2021/07/06 08:56:49;;;;;;;1.75;1.35;;;;;;;33.31;34.60;95690.06;5012634;28;20053;-74
2021/07/06 08:59:16;;;;;;;4.60;1.60;;;;;;;33.11;36.47;95698.38;5011882;28;20042;-73
2021/07/06 09:01:42;;;;;;;3.35;1.52;;;;;;;32.58;36.62;95693.44;5013142;28;20052;-74
2021/07/06 09:04:09;;;;;;;3.00;1.50;;;;;;;32.17;39.14;95695.81;5012317;28;20049;-73
2021/07/06 09:06:55;;;;;;;3.08;1.70;;;;;;;31.82;40.89;95707.50;5012940;28;20050;-74
2021/07/06 09:09:24;;;;;;;4.22;1.48;;;;;;;31.22;41.03;95696.97;5012100;28;20057;-74
2021/07/06 09:11:54;;;;;;;4.40;1.30;;;;;;;30.74;40.35;95691.00;5013013;28;20493;-73
2021/07/06 09:14:21;;;;;;;3.92;1.50;;;;;;;30.44;43.78;95689.06;5012150;28;20050;-74
2021/07/06 09:16:50;;;;;;;4.82;1.70;;;;;;;30.18;44.06;95689.31;5012559;28;20046;-74
2021/07/06 09:19:17;;;;;;;3.75;1.50;;;;;;;30.00;43.58;95689.19;5011622;28;20069;-73
2021/07/06 09:21:44;;;;;;;3.55;1.40;;;;;;;29.78;43.15;95701.28;5012653;28;20050;-74
2021/07/06 09:24:24;;;;;;;4.05;1.38;;;;;;;29.73;45.71;95699.06;5012032;28;20038;-73
2021/07/06 09:26:50;;;;;;;5.15;1.67;;;;;;;29.59;43.07;95706.00;5012544;28;20049;-73
2021/07/06 09:29:22;;;;;;;4.28;1.42;;;;;;;29.32;42.15;95700.97;5011534;28;20165;-73
2021/07/06 09:31:49;;;;;;;2.90;1.60;;;;;;;29.22;46.55;95699.34;5012435;28;20053;-73
2021/07/06 09:34:15;;;;;;;3.53;1.83;;;;;;;29.25;46.58;95694.84;5011809;28;20490;-73
2021/07/06 09:36:45;;;;;;;5.05;1.58;;;;;;;29.29;45.13;95689.91;5012249;28;20050;-73
2021/07/06 09:39:20;;;;;;;6.65;1.30;;;;;;;29.32;45.44;95691.78;5011680;28;20046;-73
2021/07/06 09:41:56;;;;;;;3.78;1.50;;;;;;;29.29;45.19;95690.69;5012085;28;20060;-73
2021/07/06 09:44:26;;;;;;;4.10;1.10;;;;;;;29.35;47.17;95680.44;5012346;28;20413;-73
2021/07/06 09:46:56;;;;;;;4.10;1.45;;;;;;;29.25;44.34;95680.84;5011979;28;20042;-74
2021/07/06 09:49:25;;;;;;;15.73;1.70;;;;;;;29.23;44.72;95675.66;5011780;28;20046;-74
2021/07/06 09:51:53;;;;;;;4.43;1.17;;;;;;;29.19;44.03;95691.09;5011772;28;20046;-73
2021/07/06 09:54:35;;;;;;;4.70;2.28;;;;;;;29.20;43.12;95682.19;5011031;28;20057;-73
2021/07/06 09:57:21;;;;;;;5.30;1.73;;;;;;;29.30;43.78;95683.84;5011865;28;20140;-74
2021/07/06 10:00:00;;;;;;;5.47;1.40;;;;;;;29.35;43.98;95683.25;5011679;28;20138;-74
2021/07/06 10:02:28;;;;;;;3.22;1.42;;;;;;;29.46;44.91;95679.25;5011624;28;20041;-73
2021/07/06 10:04:57;;;;;;;4.00;1.70;;;;;;;29.50;46.48;95671.50;5011747;28;20050;-73
2021/07/06 10:07:25;;;;;;;3.10;1.55;;;;;;;29.50;43.38;95663.84;5010711;28;20042;-73
2021/07/06 10:09:52;;;;;;;3.28;1.50;;;;;;;29.48;43.01;95674.72;5011898;28;20132;-73
2021/07/06 10:12:22;;;;;;;2.25;1.10;;;;;;;29.49;45.47;95675.50;5011360;28;20046;-73
2021/07/06 10:14:49;;;;;;;2.58;1.15;;;;;;;29.43;42.50;95668.94;5011767;28;20051;-74
2021/07/06 10:17:16;;;;;;;3.13;1.10;;;;;;;29.42;44.63;95664.56;5010967;28;20379;-73
2021/07/06 10:19:45;;;;;;;56.53;27.77;;;;;;;29.44;47.49;95670.50;5011350;28;20052;-74
2021/07/06 10:22:12;;;;;;;4.40;2.40;;;;;;;29.30;46.82;95661.41;5025621;28;20051;-73
2021/07/06 10:24:39;;;;;;;4.40;1.50;;;;;;;29.27;46.34;95659.50;5031200;28;20139;-74
2021/07/06 10:27:07;;;;;;;2.78;1.73;;;;;;;29.30;46.33;95653.00;5030634;28;20049;-73
2021/07/06 10:29:36;;;;;;;3.60;1.63;;;;;;;29.27;45.91;95653.88;5019715;28;20116;-74
2021/07/06 10:32:04;;;;;;;2.50;1.30;;;;;;;29.19;46.60;95647.00;5010439;28;20516;-74
2021/07/06 10:34:41;;;;;;;2.15;1.35;;;;;;;29.19;47.84;95644.19;5011340;28;20042;-73
2021/07/06 10:37:27;;;;;;;4.82;1.85;;;;;;;29.21;50.78;95646.53;5010729;28;20052;-73
2021/07/06 10:39:53;;;;;;;2.40;1.33;;;;;;;29.18;45.92;95651.03;5010700;28;20049;-74
2021/07/06 10:42:20;;;;;;;2.70;1.55;;;;;;;29.17;45.70;95652.25;5010472;28;20049;-74
2021/07/06 10:44:48;;;;;;;4.90;1.88;;;;;;;29.20;47.90;95644.97;5011400;28;20054;-74
2021/07/06 10:47:37;;;;;;;3.92;1.60;;;;;;;29.22;49.53;95642.50;5010805;28;20050;-74
2021/07/06 10:50:39;;;;;;;4.35;1.70;;;;;;;29.28;50.98;95635.81;5010890;28;20049;-74
2021/07/06 10:53:23;;;;;;;2.90;1.55;;;;;;;29.34;51.61;95631.22;5010407;28;20394;-73
2021/07/06 10:56:06;;;;;;;4.13;1.50;;;;;;;29.36;48.33;95637.13;5011397;28;20049;-73
2021/07/06 10:58:51;;;;;;;5.78;1.98;;;;;;;29.38;47.54;95634.63;5010585;28;20042;-74
2021/07/06 11:02:07;;;;;;;2.97;1.80;;;;;;;29.43;48.00;95629.69;5010384;28;20045;-73
2021/07/06 11:05:10;;;;;;;3.03;1.33;;;;;;;29.48;48.56;95615.84;5011101;28;20498;-73
2021/07/06 11:07:53;;;;;;;5.32;1.88;;;;;;;29.49;48.13;95625.03;5010764;28;20046;-73
2021/07/06 11:10:21;;;;;;;7.53;2.42;;;;;;;29.45;48.47;95627.22;5010740;28;20056;-73
2021/07/06 11:12:49;;;;;;;2.95;1.60;;;;;;;29.43;46.34;95618.47;5010854;28;20046;-73
2021/07/06 11:15:30;;;;;;;4.45;2.35;;;;;;;29.50;47.18;95612.59;5010326;28;20074;-73
2021/07/06 11:18:02;;;;;;;3.60;2.13;;;;;;;29.48;51.04;95604.63;5010951;28;20128;-73
2021/07/06 11:20:39;;;;;;;4.47;2.00;;;;;;;29.47;47.61;95602.28;5013916;28;20042;-73
2021/07/06 11:23:08;;;;;;;3.85;1.67;;;;;;;29.45;48.78;95613.19;5014003;28;20042;-73
2021/07/06 11:25:43;;;;;;;7.47;2.33;;;;;;;29.50;50.14;95601.38;5013962;28;20046;-73
2021/07/06 11:28:13;;;;;;;5.32;2.28;;;;;;;29.50;50.40;95604.94;5012406;28;20469;-74
2021/07/06 11:30:45;;;;;;;7.40;2.20;;;;;;;29.49;47.74;95602.59;5003851;28;20136;-73
2021/07/06 11:33:14;;;;;;;3.67;1.80;;;;;;;29.49;47.18;95599.78;5013497;28;20497;-73
2021/07/06 11:35:44;;;;;;;3.63;1.67;;;;;;;29.54;48.11;95596.41;5014580;28;20050;-74
2021/07/06 11:38:13;;;;;;;7.18;2.45;;;;;;;29.49;45.94;95602.59;5013660;28;20413;-74
2021/07/06 11:40:41;;;;;;;4.35;2.53;;;;;;;29.46;47.73;95601.50;5013267;28;20416;-74